Time;durP1;ratioP1;P1;durP2;ratioP2;P2;SDS_P1;SDS_P2;PMS_P1;PMS_P2;Temp;Humidity;BMP_temperature;BMP_pressure;BME280_temperature;BME280_humidity;BME280_pressure;Samples;Min_cycle;Max_cycle;Signal;HPM_P1;HPM_P2
2024/02/28 00:00:10;;;;;;;44.97;40.53;;;3.00;87.60;;;;;;5112340;28;20174;-88
2024/02/28 00:02:36;;;;;;;45.83;41.00;;;3.00;87.90;;;;;;5112187;28;20184;-88
2024/02/28 00:05:02;;;;;;;45.93;40.93;;;3.00;87.80;;;;;;5112265;28;20250;-88
2024/02/28 00:07:27;;;;;;;46.63;41.67;;;3.00;87.80;;;;;;5113565;28;20171;-88
2024/02/28 00:09:57;;;;;;;44.23;39.73;;;3.00;87.50;;;;;;5112107;28;20205;-89
2024/02/28 00:12:25;;;;;;;44.17;39.67;;;2.90;87.80;;;;;;5112724;28;20201;-88
2024/02/28 00:14:51;;;;;;;43.43;39.13;;;3.00;87.90;;;;;;5112142;28;20602;-88
2024/02/28 00:17:17;;;;;;;43.07;38.83;;;2.90;87.80;;;;;;5114236;28;20269;-88
2024/02/28 00:19:42;;;;;;;43.53;39.00;;;2.90;87.70;;;;;;5115855;28;20198;-88
2024/02/28 00:22:09;;;;;;;46.47;41.67;;;2.90;87.50;;;;;;5115858;28;20647;-89
2024/02/28 00:24:34;;;;;;;36.10;31.47;;;2.90;87.50;;;;;;5115759;28;20544;-88
2024/02/28 00:27:00;;;;;;;40.83;31.97;;;2.90;87.50;;;;;;5116768;28;20174;-89
2024/02/28 00:29:26;;;;;;;35.63;30.97;;;2.90;87.60;;;;;;5115650;28;20193;-88
2024/02/28 00:31:52;;;;;;;38.10;31.60;;;2.90;87.50;;;;;;5115711;28;20225;-88
2024/02/28 00:34:17;;;;;;;34.90;31.13;;;2.90;87.50;;;;;;5115572;28;20564;-89
2024/02/28 00:36:43;;;;;;;36.37;31.40;;;2.90;87.30;;;;;;5115643;28;20198;-88
2024/02/28 00:39:09;;;;;;;35.10;30.63;;;2.90;87.80;;;;;;5115624;28;20213;-88
2024/02/28 00:41:34;;;;;;;36.03;31.23;;;2.90;87.80;;;;;;5115456;28;20174;-89
2024/02/28 00:44:02;;;;;;;38.40;31.97;;;2.90;87.70;;;;;;5115470;28;20205;-88
2024/02/28 00:46:27;;;;;;;39.13;30.47;;;2.80;87.90;;;;;;5115421;28;20175;-88
2024/02/28 00:48:53;;;;;;;35.70;29.37;;;2.80;88.00;;;;;;5115433;28;20732;-88
2024/02/28 00:51:18;;;;;;;39.03;31.07;;;2.90;88.20;;;;;;5115278;28;20174;-88
2024/02/28 00:53:44;;;;;;;38.53;31.13;;;2.80;87.90;;;;;;5115384;28;20178;-88
2024/02/28 00:56:10;;;;;;;34.90;29.77;;;2.80;87.90;;;;;;5115033;28;20170;-88
2024/02/28 00:58:35;;;;;;;38.67;32.70;;;2.90;87.80;;;;;;5115865;28;20199;-88
2024/02/28 01:01:01;;;;;;;41.60;33.83;;;2.90;87.40;;;;;;5115203;28;20259;-89
2024/02/28 01:03:26;;;;;;;44.20;31.17;;;2.80;87.20;;;;;;5114977;28;20182;-89
2024/02/28 01:05:52;;;;;;;38.03;33.03;;;2.80;87.20;;;;;;5115018;28;20186;-88
2024/02/28 01:08:18;;;;;;;33.40;28.83;;;2.70;87.10;;;;;;5116084;28;20189;-88
2024/02/28 01:10:44;;;;;;;36.70;30.00;;;2.70;87.40;;;;;;5114936;28;20552;-89
2024/02/28 01:13:09;;;;;;;37.53;31.30;;;2.70;87.40;;;;;;5116462;28;20198;-88
2024/02/28 01:15:35;;;;;;;39.60;32.47;;;2.70;87.40;;;;;;5115898;28;20258;-88
2024/02/28 01:18:01;;;;;;;37.87;31.33;;;2.70;87.60;;;;;;5119097;28;20194;-91
2024/02/28 01:20:26;;;;;;;37.60;30.07;;;2.70;87.50;;;;;;5119688;28;20170;-91
2024/02/28 01:22:52;;;;;;;35.30;29.63;;;2.70;87.70;;;;;;5118268;28;20185;-90
2024/02/28 01:25:18;;;;;;;37.87;28.97;;;2.70;87.70;;;;;;5119083;28;20178;-90
2024/02/28 01:27:44;;;;;;;35.70;28.10;;;2.60;87.70;;;;;;5117273;28;20177;-91
2024/02/28 01:30:10;;;;;;;34.53;28.63;;;2.60;87.40;;;;;;5119400;28;20186;-91
2024/02/28 01:32:35;;;;;;;40.03;30.37;;;2.70;87.50;;;;;;5118642;28;20689;-91
2024/02/28 01:35:03;;;;;;;40.80;30.00;;;2.70;87.10;;;;;;5119002;28;20173;-91
2024/02/28 01:37:28;;;;;;;46.63;41.67;;;2.80;87.30;;;;;;5119411;28;20170;-91
2024/02/28 01:39:54;;;;;;;42.47;38.07;;;2.80;87.30;;;;;;5119983;28;20224;-91
2024/02/28 01:42:19;;;;;;;45.53;40.83;;;2.80;87.40;;;;;;5119059;28;20634;-91
2024/02/28 01:44:47;;;;;;;43.47;38.97;;;2.80;87.50;;;;;;5118590;28;20183;-90
2024/02/28 01:47:13;;;;;;;44.37;39.67;;;2.80;87.40;;;;;;5119365;28;20189;-91
2024/02/28 01:49:41;;;;;;;45.67;40.90;;;2.80;87.80;;;;;;5119328;28;20205;-91
2024/02/28 01:52:07;;;;;;;46.63;41.77;;;2.80;87.90;;;;;;5119036;28;20302;-91
2024/02/28 01:54:35;;;;;;;45.47;40.90;;;2.80;87.70;;;;;;5118715;28;20642;-92
2024/02/28 01:57:00;;;;;;;46.87;42.00;;;2.80;87.60;;;;;;5119225;28;20231;-91
2024/02/28 01:59:27;;;;;;;44.70;39.93;;;2.80;87.70;;;;;;5117625;28;20194;-92
2024/02/28 02:01:54;;;;;;;44.27;39.67;;;2.70;87.10;;;;;;5117258;28;20200;-91
2024/02/28 02:04:19;;;;;;;44.13;39.83;;;2.80;87.00;;;;;;5116257;28;20188;-91
2024/02/28 02:06:47;;;;;;;43.80;39.27;;;2.80;86.70;;;;;;5115710;28;20191;-91
2024/02/28 02:09:13;;;;;;;41.57;37.57;;;2.80;86.60;;;;;;5117101;28;20239;-91
2024/02/28 02:11:39;;;;;;;41.43;37.30;;;2.80;86.40;;;;;;5116841;28;20221;-90
2024/02/28 02:14:05;;;;;;;39.93;35.93;;;2.80;86.40;;;;;;5115497;28;20324;-90
2024/02/28 02:16:30;;;;;;;42.20;37.80;;;2.80;86.70;;;;;;5116720;28;20204;-90
2024/02/28 02:18:56;;;;;;;40.67;36.33;;;2.80;87.50;;;;;;5117373;28;20189;-91
2024/02/28 02:21:31;;;;;;;43.83;39.03;;;2.80;87.60;;;;;;5119246;28;20176;-91
2024/02/28 02:23:56;;;;;;;41.17;36.67;;;2.80;87.70;;;;;;5117286;28;20166;-90
2024/02/28 02:26:22;;;;;;;42.87;38.20;;;2.80;87.60;;;;;;5116718;28;20184;-90
2024/02/28 02:28:48;;;;;;;47.73;42.50;;;2.80;87.50;;;;;;5117768;28;20278;-91
2024/02/28 02:31:14;;;;;;;51.17;45.87;;;2.80;87.20;;;;;;5116192;28;20174;-90
2024/02/28 02:33:39;;;;;;;50.93;44.50;;;2.80;87.20;;;;;;5116109;28;20215;-91
2024/02/28 02:36:05;;;;;;;53.30;47.63;;;2.90;87.20;;;;;;5117906;28;20168;-91
2024/02/28 02:38:30;;;;;;;57.77;49.63;;;2.80;86.80;;;;;;5117153;28;20198;-91
2024/02/28 02:40:56;;;;;;;51.13;39.13;;;2.80;86.60;;;;;;5118024;28;20166;-91
2024/02/28 02:43:22;;;;;;;49.90;38.80;;;2.80;86.60;;;;;;5116838;28;20178;-91
2024/02/28 02:45:47;;;;;;;53.50;40.23;;;2.80;86.60;;;;;;5117136;28;20179;-91
2024/02/28 02:48:13;;;;;;;52.83;41.03;;;2.80;86.70;;;;;;5117742;28;20205;-91
2024/02/28 02:50:38;;;;;;;51.47;39.57;;;2.80;86.60;;;;;;5116781;28;20181;-91
2024/02/28 02:53:04;;;;;;;51.13;39.53;;;2.80;86.70;;;;;;5116014;28;20201;-91
2024/02/28 02:55:30;;;;;;;52.57;40.03;;;2.90;87.00;;;;;;5116362;28;20184;-90
2024/02/28 02:57:56;;;;;;;50.97;38.77;;;2.90;87.00;;;;;;5116368;28;20190;-91
2024/02/28 03:00:21;;;;;;;51.83;39.87;;;2.80;87.20;;;;;;5115013;28;20210;-91
2024/02/28 03:02:47;;;;;;;54.43;40.07;;;2.80;87.40;;;;;;5115814;28;20217;-91
2024/02/28 03:05:13;;;;;;;52.53;40.03;;;2.80;87.40;;;;;;5114378;28;20185;-91
2024/02/28 03:07:39;;;;;;;56.17;41.67;;;2.90;87.40;;;;;;5114686;28;20193;-91
2024/02/28 03:10:05;;;;;;;55.73;41.17;;;2.80;87.40;;;;;;5115729;28;20646;-91
2024/02/28 03:12:31;;;;;;;54.93;41.17;;;2.80;87.50;;;;;;5115861;28;20621;-91
2024/02/28 03:14:56;;;;;;;55.90;41.97;;;2.80;87.50;;;;;;5115070;28;20299;-91
2024/02/28 03:17:22;;;;;;;56.27;42.20;;;2.80;87.60;;;;;;5114305;28;20257;-91
2024/02/28 03:19:48;;;;;;;55.33;42.00;;;2.90;87.80;;;;;;5114596;28;20206;-91
2024/02/28 03:22:13;;;;;;;55.63;41.70;;;2.80;88.00;;;;;;5114550;28;20187;-92
2024/02/28 03:24:39;;;;;;;56.33;40.87;;;2.80;88.10;;;;;;5114376;28;20195;-91
2024/02/28 03:27:04;;;;;;;54.03;41.50;;;2.80;88.20;;;;;;5114321;28;20180;-92
2024/02/28 03:29:30;;;;;;;56.53;41.13;;;2.80;88.10;;;;;;5113747;28;20571;-91
2024/02/28 03:31:58;;;;;;;50.20;38.77;;;2.80;88.10;;;;;;5114027;28;20239;-91
2024/02/28 03:34:23;;;;;;;57.03;41.07;;;2.80;88.30;;;;;;5114000;28;20174;-91
2024/02/28 03:36:49;;;;;;;49.17;39.83;;;2.80;88.30;;;;;;5114062;28;20233;-91
2024/02/28 03:39:14;;;;;;;47.67;38.23;;;2.80;88.20;;;;;;5113963;28;20201;-92
2024/02/28 03:41:40;;;;;;;50.30;38.93;;;2.90;88.20;;;;;;5114346;28;20185;-91
2024/02/28 03:44:05;;;;;;;48.20;39.93;;;2.90;88.10;;;;;;5114472;28;20174;-91
2024/02/28 03:46:31;;;;;;;50.03;39.43;;;2.90;88.10;;;;;;5114176;28;20299;-92
2024/02/28 03:48:57;;;;;;;50.27;38.90;;;2.90;88.10;;;;;;5114656;28;20208;-91
2024/02/28 03:51:22;;;;;;;52.73;41.17;;;2.90;88.20;;;;;;5115802;28;20177;-92
2024/02/28 03:53:48;;;;;;;57.27;50.83;;;2.90;88.20;;;;;;5118259;28;20177;-91
2024/02/28 03:56:24;;;;;;;54.60;48.67;;;2.80;88.20;;;;;;5117851;28;20264;-91
2024/02/28 03:58:50;;;;;;;56.03;49.93;;;2.80;88.20;;;;;;5117748;28;20687;-91
2024/02/28 04:01:16;;;;;;;55.40;49.47;;;2.90;88.20;;;;;;5118233;28;20169;-91
2024/02/28 04:03:42;;;;;;;53.67;47.83;;;2.90;88.20;;;;;;5118198;28;20180;-92
2024/02/28 04:06:07;;;;;;;53.43;47.87;;;2.90;88.30;;;;;;5118293;28;20729;-91
2024/02/28 04:08:33;;;;;;;55.63;49.50;;;2.80;88.20;;;;;;5117570;28;20196;-91
2024/02/28 04:10:58;;;;;;;52.60;47.10;;;2.80;88.40;;;;;;5118037;28;20176;-91
2024/02/28 04:13:24;;;;;;;52.73;47.13;;;2.90;88.40;;;;;;5119352;28;20201;-91
2024/02/28 04:15:50;;;;;;;50.53;45.10;;;2.80;88.20;;;;;;5117567;28;20193;-91
2024/02/28 04:18:15;;;;;;;52.53;46.90;;;2.90;88.40;;;;;;5117658;28;20196;-91
2024/02/28 04:20:41;;;;;;;56.00;47.53;;;2.80;88.30;;;;;;5117683;28;20236;-91
2024/02/28 04:23:06;;;;;;;53.53;47.73;;;2.80;88.50;;;;;;5118035;28;20182;-92
2024/02/28 04:25:32;;;;;;;53.03;47.43;;;2.80;88.70;;;;;;5117410;28;20591;-91
2024/02/28 04:27:57;;;;;;;52.57;47.10;;;2.90;88.70;;;;;;5118482;28;20287;-91
2024/02/28 04:30:23;;;;;;;53.40;47.77;;;2.90;88.60;;;;;;5117550;28;20175;-91
2024/02/28 04:32:48;;;;;;;54.73;49.13;;;2.80;88.60;;;;;;5117061;28;20201;-91
2024/02/28 04:35:18;;;;;;;52.93;47.37;;;2.80;88.70;;;;;;5117179;28;20655;-91
2024/02/28 04:37:46;;;;;;;55.97;49.90;;;2.80;88.70;;;;;;5117424;28;20256;-91
2024/02/28 04:40:12;;;;;;;55.73;49.90;;;2.70;88.80;;;;;;5118647;28;20166;-91
2024/02/28 04:42:38;;;;;;;56.47;50.67;;;2.70;88.80;;;;;;5117658;28;20239;-92
2024/02/28 04:45:04;;;;;;;48.73;39.93;;;2.70;88.80;;;;;;5118398;28;20547;-91
2024/02/28 04:47:30;;;;;;;45.30;39.03;;;2.70;88.80;;;;;;5117299;28;20213;-91
2024/02/28 04:49:56;;;;;;;57.47;51.67;;;2.70;88.80;;;;;;5117171;28;20184;-92
2024/02/28 04:52:21;;;;;;;57.57;51.60;;;2.70;88.80;;;;;;5117699;28;20204;-91
2024/02/28 04:54:47;;;;;;;58.30;52.20;;;2.70;88.80;;;;;;5117222;28;20181;-91
2024/02/28 04:57:13;;;;;;;58.67;52.50;;;2.70;88.90;;;;;;5117147;28;20551;-91
2024/02/28 04:59:38;;;;;;;58.13;52.13;;;2.70;88.90;;;;;;5117920;28;20205;-91
2024/02/28 05:02:04;;;;;;;58.83;52.50;;;2.70;89.00;;;;;;5116592;28;20640;-92
2024/02/28 05:04:29;;;;;;;60.57;53.60;;;2.70;89.00;;;;;;5116395;28;20180;-91
2024/02/28 05:06:55;;;;;;;57.27;51.07;;;2.70;89.20;;;;;;5116536;28;20196;-91
2024/02/28 05:09:20;;;;;;;57.50;51.53;;;2.70;89.20;;;;;;5117142;28;20201;-93
2024/02/28 05:11:46;;;;;;;48.40;38.90;;;2.80;89.20;;;;;;5118316;28;20194;-91
2024/02/28 05:14:11;;;;;;;52.27;40.77;;;2.80;89.30;;;;;;5116969;28;20196;-91
2024/02/28 05:16:37;;;;;;;51.60;40.80;;;2.70;89.30;;;;;;5116572;28;20180;-91
2024/02/28 05:19:04;;;;;;;49.80;40.00;;;2.80;89.30;;;;;;5116127;28;20193;-92
2024/02/28 05:21:29;;;;;;;55.67;41.27;;;2.80;89.40;;;;;;5117020;28;20271;-91
2024/02/28 05:23:55;;;;;;;51.10;41.37;;;2.80;89.20;;;;;;5116618;28;20207;-91
2024/02/28 05:26:20;;;;;;;49.43;39.40;;;2.80;89.30;;;;;;5116397;28;20168;-91
2024/02/28 05:28:46;;;;;;;51.87;41.20;;;2.80;89.30;;;;;;5116713;28;20194;-92
2024/02/28 05:31:26;;;;;;;51.13;39.43;;;2.80;89.60;;;;;;5116032;28;20680;-91
2024/02/28 05:33:56;;;;;;;49.53;38.53;;;2.80;89.50;;;;;;5117483;28;20213;-90
2024/02/28 05:36:26;;;;;;;52.63;40.33;;;2.90;89.70;;;;;;5116829;28;20175;-91
2024/02/28 05:38:53;;;;;;;54.67;39.93;;;2.90;89.40;;;;;;5116675;28;20203;-90
2024/02/28 05:41:19;;;;;;;53.70;40.70;;;2.80;89.30;;;;;;5116378;28;20172;-91
2024/02/28 05:43:45;;;;;;;50.80;39.17;;;2.80;89.40;;;;;;5117077;28;20172;-92
2024/02/28 05:46:11;;;;;;;51.37;39.67;;;2.80;89.50;;;;;;5117462;28;20181;-92
2024/02/28 05:48:37;;;;;;;52.73;40.53;;;2.80;89.50;;;;;;5116761;28;20202;-91
2024/02/28 05:51:04;;;;;;;56.80;40.33;;;2.80;89.60;;;;;;5118245;27;20169;-92
2024/02/28 05:53:35;;;;;;;54.00;41.70;;;2.80;89.60;;;;;;5116264;28;20212;-91
2024/02/28 05:56:02;;;;;;;53.60;39.30;;;2.80;89.70;;;;;;5117531;28;20165;-91
2024/02/28 05:58:27;;;;;;;53.53;41.03;;;2.80;89.70;;;;;;5117525;28;20541;-92
2024/02/28 06:00:53;;;;;;;56.47;43.13;;;2.80;89.80;;;;;;5117763;28;20171;-91
2024/02/28 06:03:19;;;;;;;56.00;40.87;;;2.80;89.80;;;;;;5117473;28;20209;-91
2024/02/28 06:05:44;;;;;;;55.47;41.63;;;2.80;89.80;;;;;;5116008;28;20314;-91
2024/02/28 06:08:10;;;;;;;57.70;40.70;;;2.80;89.90;;;;;;5115882;28;20199;-91
2024/02/28 06:10:35;;;;;;;55.40;41.10;;;2.80;89.90;;;;;;5116966;28;20178;-91
2024/02/28 06:13:02;;;;;;;59.73;42.27;;;2.80;89.90;;;;;;5116104;28;20198;-91
2024/02/28 06:15:28;;;;;;;60.23;42.03;;;2.80;89.80;;;;;;5115563;28;20635;-91
2024/02/28 06:17:56;;;;;;;54.03;40.53;;;2.80;89.80;;;;;;5118434;28;20195;-91
2024/02/28 06:20:21;;;;;;;58.70;42.40;;;2.80;89.80;;;;;;5116215;28;20174;-92
2024/02/28 06:22:47;;;;;;;58.63;43.33;;;2.80;89.90;;;;;;5117654;28;20184;-91
2024/02/28 06:25:19;;;;;;;58.33;51.07;;;2.90;90.00;;;;;;5116558;28;20722;-91
2024/02/28 06:27:45;;;;;;;60.23;50.17;;;2.80;89.80;;;;;;5116193;28;20203;-91
2024/02/28 06:30:12;;;;;;;60.67;51.27;;;2.70;89.90;;;;;;5115307;28;20186;-91
2024/02/28 06:32:38;;;;;;;63.83;52.90;;;2.70;90.00;;;;;;5115451;28;20209;-91
2024/02/28 06:35:04;;;;;;;63.40;51.90;;;2.80;90.10;;;;;;5115707;28;20269;-91
2024/02/28 06:37:30;;;;;;;59.27;48.57;;;2.80;90.20;;;;;;5116482;28;20642;-91
2024/02/28 06:39:56;;;;;;;58.80;46.43;;;2.80;90.20;;;;;;5117068;28;20299;-91
2024/02/28 06:42:21;;;;;;;61.57;47.90;;;2.80;90.30;;;;;;5116100;28;20681;-91
2024/02/28 06:44:47;;;;;;;63.07;49.33;;;2.80;90.40;;;;;;5117010;28;20186;-91
2024/02/28 06:47:12;;;;;;;65.27;50.27;;;2.80;90.50;;;;;;5116360;28;20256;-91
2024/02/28 06:49:38;;;;;;;57.77;48.00;;;2.80;90.30;;;;;;5115951;28;20198;-91
2024/02/28 06:52:05;;;;;;;60.50;48.93;;;2.90;90.50;;;;;;5115900;28;20195;-92
2024/02/28 06:54:30;;;;;;;62.63;48.50;;;3.00;90.30;;;;;;5118586;28;20173;-91
2024/02/28 06:56:56;;;;;;;57.27;48.93;;;2.90;90.20;;;;;;5117280;28;20164;-91
2024/02/28 06:59:22;;;;;;;54.07;44.77;;;2.90;90.20;;;;;;5115536;28;20573;-91
2024/02/28 07:01:47;;;;;;;59.00;47.30;;;2.90;90.30;;;;;;5116305;28;20180;-91
2024/02/28 07:04:13;;;;;;;59.17;46.07;;;2.90;90.30;;;;;;5116746;28;20182;-91
2024/02/28 07:06:39;;;;;;;56.63;46.50;;;3.00;90.20;;;;;;5117083;28;20196;-91
2024/02/28 07:09:04;;;;;;;54.63;43.40;;;3.00;90.10;;;;;;5115813;28;20199;-92
2024/02/28 07:11:30;;;;;;;55.03;45.27;;;3.00;90.10;;;;;;5116308;28;20186;-91
2024/02/28 07:13:57;;;;;;;55.23;45.77;;;3.00;90.00;;;;;;5115717;28;20170;-91
2024/02/28 07:16:23;;;;;;;53.67;44.17;;;2.90;90.10;;;;;;5115859;28;20163;-90
2024/02/28 07:18:48;;;;;;;52.37;43.07;;;3.10;90.30;;;;;;5115673;28;20197;-91
2024/02/28 07:21:14;;;;;;;51.87;43.87;;;3.00;90.20;;;;;;5113284;28;20172;-87
2024/02/28 07:23:43;;;;;;;50.17;42.07;;;3.00;90.30;;;;;;5113167;28;20182;-89
2024/02/28 07:26:13;;;;;;;53.97;43.13;;;3.00;90.40;;;;;;5115209;28;20707;-89
2024/02/28 07:28:39;;;;;;;50.63;41.40;;;3.10;90.40;;;;;;5113065;28;20582;-89
2024/02/28 07:31:05;;;;;;;48.37;38.73;;;3.10;90.50;;;;;;5112615;28;20193;-89
2024/02/28 07:33:30;;;;;;;50.87;42.17;;;3.10;90.40;;;;;;5112391;28;20208;-88
2024/02/28 07:36:00;;;;;;;46.77;38.47;;;3.10;90.50;;;;;;5112410;28;20656;-89
2024/02/28 07:38:27;;;;;;;49.13;39.97;;;3.20;90.60;;;;;;5112381;28;20202;-89
2024/02/28 07:40:53;;;;;;;44.33;36.50;;;3.20;90.70;;;;;;5113521;28;20170;-89
2024/02/28 07:43:19;;;;;;;54.77;44.63;;;3.10;90.80;;;;;;5112736;28;20183;-89
2024/02/28 07:45:44;;;;;;;50.40;37.77;;;3.10;90.60;;;;;;5112402;28;20192;-89
2024/02/28 07:48:10;;;;;;;47.40;35.40;;;3.20;90.70;;;;;;5112095;28;20198;-89
2024/02/28 07:50:35;;;;;;;51.80;36.40;;;3.20;90.80;;;;;;5112163;28;20186;-89
2024/02/28 07:53:01;;;;;;;44.83;31.30;;;3.20;90.80;;;;;;5112304;28;20289;-89
2024/02/28 07:55:26;;;;;;;56.83;39.93;;;3.30;90.80;;;;;;5112097;28;20634;-89
2024/02/28 07:57:53;;;;;;;50.87;38.07;;;3.40;90.90;;;;;;5112021;28;20234;-89
2024/02/28 08:00:19;;;;;;;55.50;38.67;;;3.40;90.70;;;;;;5112272;28;20632;-88
2024/02/28 08:02:45;;;;;;;56.10;39.83;;;3.40;90.60;;;;;;5114053;28;20180;-88
2024/02/28 08:05:11;;;;;;;59.03;41.83;;;3.50;90.60;;;;;;5112233;28;20197;-90
2024/02/28 08:07:36;;;;;;;58.73;41.77;;;3.50;90.60;;;;;;5116989;28;20179;-90
2024/02/28 08:10:05;;;;;;;57.67;41.33;;;3.50;90.60;;;;;;5113378;28;20174;-89
2024/02/28 08:12:31;;;;;;;61.40;40.80;;;3.60;90.50;;;;;;5112169;28;20710;-92
2024/02/28 08:14:56;;;;;;;63.93;42.30;;;3.70;90.60;;;;;;5117584;28;20597;-89
2024/02/28 08:17:22;;;;;;;52.57;35.90;;;3.70;90.50;;;;;;5117627;28;20204;-90
2024/02/28 08:19:47;;;;;;;63.97;41.60;;;3.70;90.50;;;;;;5114710;28;20195;-88
2024/02/28 08:22:13;;;;;;;60.57;41.07;;;3.80;90.30;;;;;;5113656;28;20170;-89
2024/02/28 08:24:39;;;;;;;57.53;39.40;;;3.90;90.40;;;;;;5113306;28;20181;-88
2024/02/28 08:27:05;;;;;;;62.93;42.03;;;3.90;90.50;;;;;;5096861;28;20176;-89
2024/02/28 08:29:32;;;;;;;58.43;36.00;;;3.90;90.40;;;;;;5111976;28;20573;-90
2024/02/28 08:31:58;;;;;;;59.63;39.40;;;3.90;89.90;;;;;;5117396;28;20197;-92
2024/02/28 08:34:23;;;;;;;60.83;40.40;;;4.00;90.00;;;;;;5115949;28;20181;-89
2024/02/28 08:36:49;;;;;;;60.20;41.30;;;4.00;89.80;;;;;;5111822;28;20180;-89
2024/02/28 08:39:14;;;;;;;66.77;42.17;;;4.00;89.70;;;;;;5114771;28;20665;-89
2024/02/28 08:45:03;;;;;;;62.27;42.87;;;4.10;89.70;;;;;;5117353;28;20646;-91
2024/02/28 08:47:29;;;;;;;63.90;42.97;;;4.20;89.80;;;;;;5115467;28;20179;-88
2024/02/28 08:50:44;;;;;;;61.13;41.73;;;4.30;90.00;;;;;;5115906;28;20203;-89
2024/02/28 08:53:10;;;;;;;64.63;44.53;;;4.30;90.10;;;;;;5116449;28;20227;-90
2024/02/28 08:55:36;;;;;;;64.30;44.27;;;4.40;89.70;;;;;;5115158;28;20724;-89
2024/02/28 08:58:02;;;;;;;61.97;44.03;;;4.40;89.60;;;;;;5116478;28;20205;-89
2024/02/28 09:00:28;;;;;;;65.80;44.77;;;4.40;89.60;;;;;;5098087;28;20238;-89
2024/02/28 09:02:53;;;;;;;61.27;43.33;;;4.50;89.30;;;;;;5115777;28;20184;-89
2024/02/28 09:05:19;;;;;;;64.77;43.97;;;4.40;89.00;;;;;;5115297;28;20192;-87
2024/02/28 09:07:45;;;;;;;56.70;39.40;;;4.50;89.10;;;;;;5114903;28;20182;-88
2024/02/28 09:10:11;;;;;;;59.30;40.57;;;4.60;89.20;;;;;;5115602;28;20575;-87
2024/02/28 09:13:33;;;;;;;62.37;42.77;;;4.60;89.00;;;;;;5098213;28;20209;-88
2024/02/28 09:16:00;;;;;;;58.83;41.83;;;4.60;89.10;;;;;;5114863;28;20177;-87
2024/02/28 09:19:12;;;;;;;58.47;41.17;;;4.60;88.70;;;;;;5115855;28;20665;-87
2024/02/28 09:21:38;;;;;;;60.37;41.13;;;4.60;88.40;;;;;;5116356;28;20252;-87
2024/02/28 09:24:25;;;;;;;64.03;42.43;;;4.70;88.60;;;;;;5114960;28;20177;-87
2024/02/28 09:26:51;;;;;;;62.70;43.10;;;4.70;88.50;;;;;;5116391;28;20682;-87
2024/02/28 09:29:17;;;;;;;46.10;33.97;;;4.70;88.60;;;;;;5116273;28;20197;-87
2024/02/28 09:31:43;;;;;;;61.33;41.80;;;4.80;88.50;;;;;;5115919;28;20161;-87
2024/02/28 09:34:11;;;;;;;66.13;45.30;;;4.80;88.20;;;;;;5114729;28;20250;-87
2024/02/28 09:36:45;;;;;;;63.10;42.13;;;4.90;88.70;;;;;;5097851;28;20196;-88
2024/02/28 09:39:12;;;;;;;55.50;37.67;;;4.90;88.70;;;;;;5114712;28;20197;-87
2024/02/28 09:41:38;;;;;;;55.23;41.83;;;5.00;88.60;;;;;;5115689;28;20223;-87
2024/02/28 09:44:31;;;;;;;57.33;42.37;;;5.00;88.30;;;;;;5115763;27;20672;-88
2024/02/28 09:46:58;;;;;;;59.67;43.13;;;5.10;88.20;;;;;;5115755;28;20227;-87
2024/02/28 09:49:26;;;;;;;52.97;38.20;;;5.10;87.80;;;;;;5113974;28;20224;-87
2024/02/28 09:51:56;;;;;;;47.17;35.37;;;5.20;87.80;;;;;;5114265;28;20261;-87
2024/02/28 09:54:21;;;;;;;53.33;38.50;;;5.30;88.10;;;;;;5115538;28;20166;-88
2024/02/28 09:56:48;;;;;;;57.13;43.10;;;5.30;88.30;;;;;;5115427;28;20174;-87
2024/02/28 09:59:15;;;;;;;64.00;49.63;;;5.30;87.60;;;;;;5115299;28;20186;-87
2024/02/28 10:01:46;;;;;;;61.77;45.70;;;5.30;87.80;;;;;;5115223;28;20193;-88
2024/02/28 10:04:13;;;;;;;62.77;47.97;;;5.30;88.10;;;;;;5113976;28;20757;-87
2024/02/28 10:06:40;;;;;;;62.17;47.47;;;5.30;88.20;;;;;;5113745;28;20189;-90
2024/02/28 10:09:07;;;;;;;68.43;49.17;;;5.30;88.40;;;;;;5115001;28;20277;-88
2024/02/28 10:11:35;;;;;;;59.80;45.67;;;5.30;88.70;;;;;;5114016;28;20173;-87
2024/02/28 10:14:01;;;;;;;65.53;46.57;;;5.30;88.30;;;;;;5114085;28;20177;-87
2024/02/28 10:16:31;;;;;;;62.83;48.23;;;5.30;88.50;;;;;;5115146;28;20165;-87
2024/02/28 10:18:57;;;;;;;62.43;46.87;;;5.40;88.70;;;;;;5115204;28;20193;-87
2024/02/28 10:21:24;;;;;;;58.93;44.73;;;5.40;88.70;;;;;;5114043;28;20256;-87
2024/02/28 10:23:49;;;;;;;62.17;47.47;;;5.50;88.40;;;;;;5115175;28;20185;-87
2024/02/28 10:26:15;;;;;;;58.53;44.07;;;5.60;88.50;;;;;;5113872;28;20166;-87
2024/02/28 10:28:41;;;;;;;62.30;48.93;;;5.50;88.10;;;;;;5113427;28;20185;-87
2024/02/28 10:31:07;;;;;;;62.03;48.10;;;5.40;88.10;;;;;;5113729;28;20174;-87
2024/02/28 10:33:35;;;;;;;59.60;46.70;;;5.30;87.90;;;;;;5113456;28;20204;-87
2024/02/28 10:36:03;;;;;;;63.30;47.93;;;5.40;88.10;;;;;;5113765;28;20178;-88
2024/02/28 10:38:33;;;;;;;67.07;48.73;;;5.40;88.10;;;;;;5114499;28;20239;-87
2024/02/28 10:41:02;;;;;;;64.07;43.93;;;5.40;88.10;;;;;;5114713;28;20166;-87
2024/02/28 10:43:30;;;;;;;64.27;47.37;;;5.30;88.30;;;;;;5113480;28;20204;-87
2024/02/28 10:45:58;;;;;;;64.23;48.17;;;5.40;88.40;;;;;;5113239;28;20181;-88
2024/02/28 10:48:25;;;;;;;66.70;47.60;;;5.30;88.40;;;;;;5113433;28;20205;-87
2024/02/28 10:50:51;;;;;;;65.00;44.53;;;5.20;88.60;;;;;;5113282;28;20257;-87
2024/02/28 10:53:28;;;;;;;67.17;46.43;;;5.30;88.70;;;;;;5114357;28;20398;-87
2024/02/28 10:55:59;;;;;;;73.60;48.63;;;5.20;88.90;;;;;;5113132;28;20193;-88
2024/02/28 10:58:28;;;;;;;68.23;47.03;;;5.30;89.00;;;;;;5113164;28;20278;-87
2024/02/28 11:00:54;;;;;;;67.87;41.43;;;5.30;89.10;;;;;;5112348;28;20177;-88
2024/02/28 11:03:20;;;;;;;66.33;39.80;;;5.30;89.40;;;;;;5113040;28;20178;-87
2024/02/28 11:05:46;;;;;;;64.00;39.10;;;5.30;89.50;;;;;;5114299;28;20548;-88
2024/02/28 11:08:20;;;;;;;66.10;39.93;;;5.30;89.70;;;;;;5113176;28;20202;-87
2024/02/28 11:10:47;;;;;;;72.40;42.37;;;5.30;89.80;;;;;;5114334;28;20158;-87
2024/02/28 11:13:25;;;;;;;66.10;38.23;;;5.30;89.90;;;;;;5112903;28;20677;-87
2024/02/28 11:15:51;;;;;;;71.80;38.50;;;5.30;90.10;;;;;;5113494;28;20214;-86
2024/02/28 11:18:17;;;;;;;74.33;36.27;;;5.30;90.10;;;;;;5114583;28;20687;-87
2024/02/28 11:20:46;;;;;;;78.17;38.50;;;5.30;90.40;;;;;;5113658;28;20166;-87
2024/02/28 11:23:11;;;;;;;75.07;37.23;;;5.30;90.70;;;;;;5114741;28;20173;-87
2024/02/28 11:25:41;;;;;;;69.33;35.37;;;5.30;90.80;;;;;;5117737;28;20166;-90
2024/02/28 11:28:08;;;;;;;75.57;39.27;;;5.30;90.90;;;;;;5121691;28;20193;-90
2024/02/28 11:30:34;;;;;;;77.80;38.57;;;5.30;91.00;;;;;;5124424;28;20266;-90
2024/02/28 11:32:59;;;;;;;76.97;39.27;;;5.40;91.10;;;;;;5130188;28;20602;-90
2024/02/28 11:35:27;;;;;;;77.53;38.03;;;5.50;91.10;;;;;;5129869;28;20231;-90
2024/02/28 11:37:57;;;;;;;81.97;39.80;;;5.50;91.00;;;;;;5126276;28;20214;-91
2024/02/28 11:40:26;;;;;;;84.87;41.50;;;5.70;91.00;;;;;;5117480;28;20170;-91
2024/02/28 11:42:53;;;;;;;79.50;39.23;;;5.50;90.80;;;;;;5120634;28;20265;-90
2024/02/28 11:45:18;;;;;;;70.33;37.33;;;5.60;91.00;;;;;;5119504;28;20177;-90
2024/02/28 11:47:44;;;;;;;79.50;38.60;;;5.70;91.00;;;;;;5116890;28;20676;-89
2024/02/28 11:50:10;;;;;;;72.67;39.93;;;5.80;91.20;;;;;;5119971;28;20185;-90
2024/02/28 11:52:36;;;;;;;73.20;38.67;;;5.90;90.90;;;;;;5123174;28;20198;-90
2024/02/28 11:55:02;;;;;;;74.30;37.90;;;5.90;90.80;;;;;;5126860;28;20171;-90
2024/02/28 11:57:29;;;;;;;75.73;42.53;;;5.80;90.50;;;;;;5123619;28;20203;-90
2024/02/28 11:59:55;;;;;;;73.60;37.57;;;5.90;90.40;;;;;;5124934;28;20194;-90
2024/02/28 12:02:26;;;;;;;82.43;41.73;;;5.90;90.20;;;;;;5125710;28;20177;-90
2024/02/28 12:04:54;;;;;;;79.30;39.93;;;6.00;90.40;;;;;;5125029;28;20178;-90
2024/02/28 12:07:19;;;;;;;78.73;39.70;;;6.10;90.20;;;;;;5125986;28;20189;-90
2024/02/28 12:09:48;;;;;;;72.27;40.07;;;5.90;90.10;;;;;;5127941;28;20208;-91
2024/02/28 12:12:14;;;;;;;75.47;37.90;;;5.90;90.00;;;;;;5125280;28;20617;-90
2024/02/28 12:14:40;;;;;;;73.80;38.33;;;6.00;90.30;;;;;;5125208;28;20179;-90
2024/02/28 12:17:05;;;;;;;73.47;39.80;;;5.90;90.10;;;;;;5128683;28;20174;-90
2024/02/28 12:19:31;;;;;;;76.47;40.47;;;5.90;90.10;;;;;;5132483;28;20198;-90
2024/02/28 12:21:58;;;;;;;76.97;42.60;;;6.00;90.20;;;;;;5130123;28;20902;-90
2024/02/28 12:24:24;;;;;;;76.23;43.37;;;6.20;90.00;;;;;;5125992;28;20242;-90
2024/02/28 12:26:49;;;;;;;72.83;39.23;;;6.00;89.70;;;;;;5124896;28;20170;-90
2024/02/28 12:29:15;;;;;;;77.70;40.77;;;5.80;89.80;;;;;;5124367;28;20198;-90
2024/02/28 12:31:41;;;;;;;83.23;46.60;;;5.80;90.10;;;;;;5126806;28;20181;-90
2024/02/28 12:34:06;;;;;;;73.70;43.40;;;5.80;90.40;;;;;;5134552;28;20213;-89
2024/02/28 12:36:32;;;;;;;79.33;43.30;;;5.80;90.20;;;;;;5123799;28;20176;-90